Time;durP1;ratioP1;P1;durP2;ratioP2;P2;SDS_P1;SDS_P2;PMS_P1;PMS_P2;Temp;Humidity;BMP_temperature;BMP_pressure;BME280_temperature;BME280_humidity;BME280_pressure;Samples;Min_cycle;Max_cycle;Signal;HPM_P1;HPM_P2
2021/05/10 00:00:44;;;;;;;8.23;6.17;;;;;;;11.48;50.40;98789.20;124908;1101;64329;-81
2021/05/10 00:03:17;;;;;;;8.90;6.10;;;;;;;11.38;50.61;98802.36;124950;1096;64338;-81
2021/05/10 00:05:45;;;;;;;11.53;5.90;;;;;;;11.30;50.64;98795.89;124960;1101;64364;-82
2021/05/10 00:08:12;;;;;;;9.33;6.80;;;;;;;11.22;50.98;98796.45;124890;1096;64422;-82
2021/05/10 00:10:41;;;;;;;9.97;6.50;;;;;;;11.18;51.57;98797.62;124892;1095;64243;-82
2021/05/10 00:13:11;;;;;;;10.93;6.67;;;;;;;11.20;51.34;98799.21;124966;1101;64312;-82
2021/05/10 00:15:39;;;;;;;9.27;7.00;;;;;;;11.24;51.76;98791.83;124874;1101;64284;-81
2021/05/10 00:18:06;;;;;;;10.87;6.00;;;;;;;11.26;51.64;98797.91;124888;1101;64261;-82
2021/05/10 00:20:37;;;;;;;8.33;6.00;;;;;;;11.24;51.77;98790.98;124996;1101;64483;-81
2021/05/10 00:23:05;;;;;;;9.53;6.47;;;;;;;11.17;51.77;98793.27;124940;1101;64403;-82
2021/05/10 00:25:32;;;;;;;9.33;7.00;;;;;;;11.13;51.82;98795.28;124935;1096;64336;-81
2021/05/10 00:27:59;;;;;;;11.20;8.40;;;;;;;11.08;51.97;98789.42;124924;1101;64805;-81
2021/05/10 00:30:28;;;;;;;14.07;9.40;;;;;;;11.01;52.26;98790.85;124869;1101;64271;-81
2021/05/10 00:32:55;;;;;;;13.03;9.23;;;;;;;10.97;52.21;98789.36;124810;1101;64409;-81
2021/05/10 00:35:24;;;;;;;13.47;9.73;;;;;;;10.94;52.27;98792.25;124879;1101;64377;-81
2021/05/10 00:37:52;;;;;;;13.73;9.27;;;;;;;10.94;52.07;98792.25;124900;1101;64329;-81
2021/05/10 00:40:24;;;;;;;9.85;6.85;;;;;;;10.91;51.98;98793.31;124824;1101;64306;-81
2021/05/10 00:42:51;;;;;;;11.40;7.10;;;;;;;10.86;52.73;98791.94;124855;1096;64337;-80
2021/05/10 00:45:19;;;;;;;8.37;7.13;;;;;;;10.75;52.67;98787.38;124861;1101;64387;-82
2021/05/10 00:47:46;;;;;;;10.90;8.55;;;;;;;10.71;53.58;98786.72;124898;1096;64484;-81
2021/05/10 00:50:15;;;;;;;12.63;8.03;;;;;;;10.70;53.58;98784.19;124870;1101;64326;-81
2021/05/10 00:52:42;;;;;;;10.60;7.80;;;;;;;10.70;53.93;98789.52;124858;1101;64390;-81
2021/05/10 00:55:11;;;;;;;10.20;7.60;;;;;;;10.68;53.86;98784.28;124814;1096;64336;-81
2021/05/10 00:57:47;;;;;;;11.50;8.75;;;;;;;10.65;54.19;98778.33;124871;1096;64323;-81
2021/05/10 01:00:16;;;;;;;11.63;8.17;;;;;;;10.60;54.15;98785.79;124868;1101;64475;-82
2021/05/10 01:02:44;;;;;;;14.03;8.87;;;;;;;10.55;54.45;98781.63;124881;1095;64326;-82
2021/05/10 01:05:13;;;;;;;10.43;7.90;;;;;;;10.53;54.55;98790.69;124869;1101;64214;-82
2021/05/10 01:07:41;;;;;;;10.63;7.97;;;;;;;10.48;54.66;98788.37;124908;1101;64449;-83
2021/05/10 01:10:14;;;;;;;11.40;8.17;;;;;;;10.46;54.67;98784.95;124855;1101;64288;-83
2021/05/10 01:12:42;;;;;;;11.43;8.00;;;;;;;10.43;54.99;98789.65;124860;1096;64486;-81
2021/05/10 01:15:13;;;;;;;11.50;8.07;;;;;;;10.40;55.30;98790.72;124802;1096;64421;-82
2021/05/10 01:17:41;;;;;;;11.27;7.40;;;;;;;10.40;55.66;98792.50;124818;1101;64446;-81
2021/05/10 01:20:11;;;;;;;10.55;8.45;;;;;;;10.40;55.82;98792.50;124838;1101;64331;-81
2021/05/10 01:22:43;;;;;;;;;;;;;;;10.37;56.15;98790.91;124886;1101;64451;-81
2021/05/10 01:25:13;;;;;;;10.13;7.17;;;;;;;10.32;56.22;98787.70;124828;1101;64374;-82
2021/05/10 01:27:42;;;;;;;10.83;7.20;;;;;;;10.29;56.48;98795.91;124870;1101;64371;-81
2021/05/10 01:30:17;;;;;;;9.47;7.27;;;;;;;10.27;56.56;98800.48;124867;1101;64371;-81
2021/05/10 01:32:45;;;;;;;12.27;7.67;;;;;;;10.24;56.82;98800.67;124875;1095;64297;-81
2021/05/10 01:35:16;;;;;;;9.60;6.83;;;;;;;10.21;57.01;98791.08;124866;1101;64419;-81
2021/05/10 01:37:43;;;;;;;10.93;7.40;;;;;;;10.17;57.18;98797.59;124831;1096;64466;-82
2021/05/10 01:40:11;;;;;;;9.97;7.60;;;;;;;10.14;57.40;98794.27;124837;1096;64677;-81
2021/05/10 01:42:38;;;;;;;12.13;6.60;;;;;;;10.14;57.98;98789.81;124874;1101;64278;-81
2021/05/10 01:45:07;;;;;;;9.50;6.20;;;;;;;10.16;57.81;98793.20;124828;1101;64254;-81
2021/05/10 01:47:34;;;;;;;10.00;7.30;;;;;;;10.16;57.69;98798.53;124824;1101;64390;-81
2021/05/10 01:50:22;;;;;;;10.97;8.67;;;;;;;10.13;57.90;98785.42;124833;1101;64246;-81
2021/05/10 01:52:49;;;;;;;35.00;20.27;;;;;;;10.09;57.89;98787.45;124896;1096;64326;-81
2021/05/10 01:55:17;;;;;;;15.93;11.97;;;;;;;10.05;58.04;98793.09;124853;1096;64766;-82
2021/05/10 01:57:48;;;;;;;22.13;14.90;;;;;;;10.00;58.19;98782.74;124854;1095;64323;-82
2021/05/10 02:00:37;;;;;;;40.07;30.23;;;;;;;9.93;58.11;98778.81;124911;1101;64236;-82
2021/05/10 02:03:06;;;;;;;31.47;28.00;;;;;;;9.84;58.11;98779.42;124905;1096;64441;-81
2021/05/10 02:05:34;;;;;;;16.10;14.37;;;;;;;9.75;58.38;98780.05;124833;1096;64326;-81
2021/05/10 02:08:04;;;;;;;13.63;11.37;;;;;;;9.66;58.41;98777.06;124866;1096;64246;-82
2021/05/10 02:10:34;;;;;;;14.93;11.63;;;;;;;9.57;58.66;98777.66;124854;1096;64240;-82
2021/05/10 02:13:01;;;;;;;14.40;11.27;;;;;;;9.43;58.87;98783.89;124884;1096;65223;-82
2021/05/10 02:15:38;;;;;;;11.43;9.80;;;;;;;9.37;59.13;98786.97;124887;1101;64406;-82
2021/05/10 02:18:07;;;;;;;11.60;8.57;;;;;;;9.31;59.13;98789.16;124871;1096;64252;-82
2021/05/10 02:20:36;;;;;;;11.20;8.45;;;;;;;9.22;59.19;98780.83;124850;1101;64339;-82
2021/05/10 02:23:10;;;;;;;8.47;7.57;;;;;;;9.17;59.19;98784.73;124887;1101;64345;-82
2021/05/10 02:25:42;;;;;;;9.50;7.07;;;;;;;9.16;59.46;98785.67;124783;1101;64422;-82
2021/05/10 02:28:11;;;;;;;8.63;6.90;;;;;;;9.11;59.67;98785.11;124832;1101;64490;-82
2021/05/10 02:30:40;;;;;;;9.30;7.93;;;;;;;9.10;59.63;98796.70;124867;1096;64341;-82
2021/05/10 02:33:11;;;;;;;11.95;9.63;;;;;;;9.08;59.90;98785.31;124890;1101;64331;-82
2021/05/10 02:35:38;;;;;;;10.27;7.83;;;;;;;9.05;59.95;98778.39;124853;1101;64324;-83
2021/05/10 02:38:06;;;;;;;8.37;6.13;;;;;;;9.06;59.95;98788.09;124828;1101;64393;-83
2021/05/10 02:40:34;;;;;;;8.23;6.50;;;;;;;9.07;60.06;98786.28;124829;1096;64332;-83
2021/05/10 02:43:03;;;;;;;10.13;7.73;;;;;;;9.06;60.20;98784.55;124845;1101;64434;-82
2021/05/10 02:45:31;;;;;;;12.65;8.40;;;;;;;9.03;60.28;98790.06;124891;1101;64251;-81
2021/05/10 02:47:59;;;;;;;14.25;9.00;;;;;;;9.03;60.38;98782.97;124858;1101;64329;-81
2021/05/10 02:50:27;;;;;;;12.20;8.70;;;;;;;8.99;60.88;98782.30;124810;1101;64377;-80
2021/05/10 02:52:55;;;;;;;14.27;9.10;;;;;;;8.96;60.58;98781.65;124857;1101;64498;-81
2021/05/10 02:55:22;;;;;;;12.53;8.57;;;;;;;8.95;60.88;98786.12;124862;1101;64336;-81
2021/05/10 02:57:51;;;;;;;13.73;9.27;;;;;;;8.92;61.00;98775.66;124881;1101;64332;-82
2021/05/10 03:00:21;;;;;;;14.33;9.10;;;;;;;8.89;60.55;98783.83;124845;1095;64322;-81
2021/05/10 03:02:50;;;;;;;12.97;9.40;;;;;;;8.83;61.29;98781.57;124853;1101;64486;-82
2021/05/10 03:05:19;;;;;;;14.40;10.93;;;;;;;8.81;61.05;98782.62;124838;1101;64397;-83
2021/05/10 03:07:46;;;;;;;9.43;8.13;;;;;;;8.81;61.53;98787.93;124866;1101;64342;-83
2021/05/10 03:10:19;;;;;;;10.27;7.20;;;;;;;8.79;61.59;98778.27;124872;1101;64303;-85
2021/05/10 03:12:46;;;;;;;9.40;7.50;;;;;;;8.82;61.71;98779.00;124931;1096;64330;-82
2021/05/10 03:15:16;;;;;;;10.37;6.93;;;;;;;8.84;61.85;98785.92;124900;1096;64267;-82
2021/05/10 03:17:44;;;;;;;8.23;6.30;;;;;;;8.86;61.92;98794.66;124967;1096;64377;-82
2021/05/10 03:20:15;;;;;;;9.17;7.03;;;;;;;8.88;62.07;98783.95;124821;1101;64355;-81
2021/05/10 03:22:42;;;;;;;13.30;9.10;;;;;;;8.89;62.07;98781.17;124820;1101;64336;-81
2021/05/10 03:25:10;;;;;;;11.00;7.50;;;;;;;8.93;62.12;98782.70;124897;1101;64249;-81
2021/05/10 03:27:39;;;;;;;9.47;7.37;;;;;;;8.98;62.32;98787.73;124840;1096;64382;-81
2021/05/10 03:30:15;;;;;;;13.27;7.87;;;;;;;9.37;62.06;98781.64;124889;1101;64275;-82
2021/05/10 03:32:44;;;;;;;11.37;8.07;;;;;;;10.52;60.63;98773.01;124881;1095;64326;-82
2021/05/10 03:35:12;;;;;;;10.60;8.20;;;;;;;11.50;59.11;98781.06;124864;1096;64348;-82
2021/05/10 03:37:40;;;;;;;10.70;8.23;;;;;;;12.37;57.93;98776.27;124895;1096;64352;-82
2021/05/10 03:40:10;;;;;;;11.13;8.47;;;;;;;13.20;56.69;98772.38;124792;1101;64272;-82
2021/05/10 03:42:39;;;;;;;9.43;8.48;;;;;;;13.91;55.41;98773.63;124810;1096;64242;-82
2021/05/10 03:45:08;;;;;;;13.50;8.40;;;;;;;14.69;54.32;98763.39;124880;1101;64332;-82
2021/05/10 03:47:42;;;;;;;8.33;6.65;;;;;;;15.24;53.24;98776.44;124877;1095;64329;-82
2021/05/10 03:50:15;;;;;;;10.27;9.20;;;;;;;15.83;51.81;98762.13;124896;1095;64300;-81
2021/05/10 03:52:43;;;;;;;8.60;7.20;;;;;;;16.40;50.93;98764.87;124846;1095;64265;-82
2021/05/10 03:55:14;;;;;;;9.67;7.90;;;;;;;17.04;49.97;98757.88;124866;1101;64447;-81
2021/05/10 03:57:42;;;;;;;7.17;6.47;;;;;;;17.49;47.81;98760.58;124852;1096;64332;-82
2021/05/10 04:00:11;;;;;;;7.37;6.67;;;;;;;17.87;47.06;98749.67;124845;1101;64278;-81
2021/05/10 04:02:39;;;;;;;7.13;6.50;;;;;;;18.27;46.73;98759.09;124904;1096;64358;-81
2021/05/10 04:05:25;;;;;;;7.17;6.43;;;;;;;18.67;45.67;98761.23;124868;1101;64428;-81
2021/05/10 04:08:01;;;;;;;7.43;6.17;;;;;;;19.23;44.37;98758.98;124830;1101;64506;-81
2021/05/10 04:16:00;;;;;;;8.73;6.70;;;;;;;20.03;41.59;98762.01;124825;1096;64708;-80
2021/05/10 04:18:27;;;;;;;8.63;7.43;;;;;;;20.38;41.43;98757.28;124802;1096;64872;-81
2021/05/10 04:20:55;;;;;;;8.95;8.15;;;;;;;20.74;41.35;98755.02;124892;1101;64383;-81
2021/05/10 04:23:23;;;;;;;7.63;6.80;;;;;;;21.09;40.02;98746.59;124885;1101;64331;-81
2021/05/10 04:25:51;;;;;;;11.80;7.40;;;;;;;21.09;39.55;98749.30;124938;1096;64360;-81
2021/05/10 04:28:20;;;;;;;7.03;6.27;;;;;;;21.32;39.38;98757.50;124971;1101;64310;-81
2021/05/10 04:30:49;;;;;;;7.23;6.27;;;;;;;21.46;39.10;98762.22;124916;1101;64286;-81
2021/05/10 04:33:26;;;;;;;7.50;6.80;;;;;;;21.72;38.18;98753.73;124905;1096;64473;-81
2021/05/10 04:35:54;;;;;;;7.90;6.25;;;;;;;21.29;37.76;98747.86;124895;1101;64303;-81
2021/05/10 04:38:21;;;;;;;6.80;5.70;;;;;;;21.13;37.03;98750.66;124860;1101;64348;-81
2021/05/10 04:40:49;;;;;;;6.43;5.93;;;;;;;20.15;38.68;98765.23;124970;1101;64418;-81
2021/05/10 04:43:17;;;;;;;7.30;6.50;;;;;;;20.73;38.24;98766.04;124838;1101;64332;-81
2021/05/10 04:45:45;;;;;;;6.90;6.20;;;;;;;21.01;37.70;98763.73;124803;1096;64332;-80
2021/05/10 04:48:12;;;;;;;6.17;5.60;;;;;;;21.21;37.26;98765.00;124926;1101;64384;-81
2021/05/10 04:50:39;;;;;;;5.67;5.27;;;;;;;21.31;35.97;98753.95;124900;1101;64441;-80
2021/05/10 04:53:13;;;;;;;6.15;5.55;;;;;;;20.09;37.01;98757.78;124892;1096;64300;-80
2021/05/10 04:55:41;;;;;;;7.07;6.47;;;;;;;20.29;37.55;98764.54;124866;1101;64432;-81
2021/05/10 04:58:08;;;;;;;6.87;5.80;;;;;;;20.87;37.22;98759.89;124927;1096;64250;-80
2021/05/10 05:00:35;;;;;;;6.83;4.70;;;;;;;21.38;36.86;98760.40;124894;1101;64258;-81
2021/05/10 05:03:03;;;;;;;4.40;4.00;;;;;;;21.63;36.83;98755.66;124844;1096;64281;-81
2021/05/10 05:05:30;;;;;;;5.10;4.60;;;;;;;21.87;35.49;98753.80;124908;1095;64515;-80
2021/05/10 05:07:57;;;;;;;5.25;4.10;;;;;;;22.06;35.69;98744.32;124783;1101;64333;-81
2021/05/10 05:10:25;;;;;;;4.87;3.13;;;;;;;22.34;35.24;98750.89;124850;1101;64406;-81
2021/05/10 05:12:52;;;;;;;4.50;3.17;;;;;;;22.51;34.62;98753.44;124819;1101;64837;-82
2021/05/10 05:15:22;;;;;;;3.43;2.70;;;;;;;22.67;34.18;98749.70;124854;1101;64326;-82
2021/05/10 05:17:49;;;;;;;3.67;3.27;;;;;;;22.76;33.82;98751.33;124910;1101;64249;-81
2021/05/10 05:20:18;;;;;;;4.47;3.27;;;;;;;22.91;33.58;98756.77;124779;1096;64467;-83
2021/05/10 05:22:45;;;;;;;3.68;2.70;;;;;;;23.03;32.89;98758.00;124901;1096;64329;-80
2021/05/10 05:25:13;;;;;;;4.23;2.77;;;;;;;23.09;32.97;98761.83;124812;1101;64204;-81
2021/05/10 05:27:40;;;;;;;4.50;3.40;;;;;;;23.09;32.18;98759.98;124823;1096;64278;-80
2021/05/10 05:30:10;;;;;;;4.20;3.05;;;;;;;22.76;31.93;98759.47;124875;1096;64262;-80
2021/05/10 05:32:37;;;;;;;3.40;3.10;;;;;;;22.69;32.22;98753.93;124868;1101;64332;-81
2021/05/10 05:35:05;;;;;;;3.80;3.43;;;;;;;22.71;32.36;98751.04;124801;1096;64249;-81
2021/05/10 05:37:32;;;;;;;3.95;3.30;;;;;;;22.79;32.49;98757.22;124835;1096;64300;-82
2021/05/10 05:39:59;;;;;;;3.57;2.80;;;;;;;22.87;31.75;98744.58;124850;1101;64326;-81
2021/05/10 05:42:27;;;;;;;3.37;2.90;;;;;;;22.67;31.46;98745.14;124774;1101;64249;-81
2021/05/10 05:44:55;;;;;;;4.63;2.90;;;;;;;22.68;32.00;98740.55;124820;1101;64364;-81
2021/05/10 05:47:25;;;;;;;3.13;2.83;;;;;;;22.91;32.19;98740.47;124816;1101;64467;-81
2021/05/10 05:49:55;;;;;;;5.13;3.20;;;;;;;22.98;31.91;98742.25;124828;1095;64249;-81
2021/05/10 05:52:23;;;;;;;4.95;3.20;;;;;;;23.07;31.14;98742.17;124870;1095;64306;-81
2021/05/10 05:54:52;;;;;;;5.97;3.30;;;;;;;23.05;31.71;98739.63;124892;1096;64323;-81
2021/05/10 05:57:21;;;;;;;3.80;2.87;;;;;;;22.94;31.34;98740.92;124761;1101;64421;-81
2021/05/10 05:59:48;;;;;;;3.07;2.77;;;;;;;22.91;31.35;98735.87;124843;1101;64406;-80
2021/05/10 06:02:16;;;;;;;3.87;3.13;;;;;;;22.90;31.69;98739.59;124863;1096;64358;-81
2021/05/10 06:04:43;;;;;;;4.33;3.20;;;;;;;23.04;31.83;98743.39;124823;1101;64329;-80
2021/05/10 06:07:10;;;;;;;4.50;2.80;;;;;;;23.08;31.60;98741.97;124870;1101;64425;-81
2021/05/10 06:09:37;;;;;;;3.20;2.90;;;;;;;23.07;31.91;98743.02;124855;1101;64437;-81
2021/05/10 06:12:05;;;;;;;3.83;2.90;;;;;;;23.15;32.26;98731.19;124845;1096;64315;-81
2021/05/10 06:14:33;;;;;;;3.20;2.73;;;;;;;23.17;31.58;98739.98;124853;1096;64326;-80
2021/05/10 06:17:00;;;;;;;3.13;2.37;;;;;;;22.99;31.46;98743.11;124841;1101;64320;-81
2021/05/10 06:19:28;;;;;;;3.60;3.20;;;;;;;22.88;32.02;98738.97;124838;1096;64359;-80
2021/05/10 06:21:55;;;;;;;6.10;2.63;;;;;;;22.94;31.96;98740.92;124818;1096;64428;-80
2021/05/10 06:24:22;;;;;;;3.63;2.60;;;;;;;23.00;31.74;98736.63;124825;1101;64481;-80
2021/05/10 06:26:50;;;;;;;3.27;2.63;;;;;;;22.99;32.17;98738.52;124846;1096;64332;-80
2021/05/10 06:29:17;;;;;;;3.17;2.60;;;;;;;22.91;31.85;98740.47;124938;1096;64336;-81
2021/05/10 06:31:44;;;;;;;5.47;2.90;;;;;;;22.90;32.46;98738.76;124864;1101;64339;-79
2021/05/10 06:34:12;;;;;;;2.43;2.23;;;;;;;23.00;32.45;98734.75;124790;1101;64299;-81
2021/05/10 06:36:39;;;;;;;3.23;2.33;;;;;;;23.10;32.76;98729.03;124861;1096;64459;-80
2021/05/10 06:39:06;;;;;;;3.70;3.00;;;;;;;23.13;32.64;98739.52;124809;1101;64320;-81
2021/05/10 06:41:33;;;;;;;4.77;2.73;;;;;;;23.23;32.54;98739.23;124852;1101;64249;-81
2021/05/10 06:44:01;;;;;;;3.33;2.90;;;;;;;23.39;32.58;98736.29;124810;1101;64422;-81
2021/05/10 06:46:28;;;;;;;2.60;2.40;;;;;;;23.40;32.13;98734.41;124825;1101;64834;-81
2021/05/10 06:48:55;;;;;;;2.97;2.37;;;;;;;23.42;32.56;98729.63;124877;1101;64559;-81
2021/05/10 06:51:22;;;;;;;3.23;2.93;;;;;;;23.48;32.38;98730.73;124868;1101;64400;-80
2021/05/10 06:53:49;;;;;;;5.00;2.90;;;;;;;23.54;32.54;98724.52;124804;1101;64333;-81
2021/05/10 06:56:17;;;;;;;6.03;3.13;;;;;;;23.66;32.69;98731.98;124809;1101;64339;-81
2021/05/10 06:58:44;;;;;;;4.77;2.50;;;;;;;23.72;32.38;98727.67;124818;1096;64419;-81
2021/05/10 07:01:11;;;;;;;3.13;2.60;;;;;;;23.64;32.29;98719.60;124859;1096;64306;-81
2021/05/10 07:03:38;;;;;;;2.70;2.13;;;;;;;23.49;32.02;98727.83;124809;1101;64386;-80
2021/05/10 07:06:05;;;;;;;4.57;2.83;;;;;;;23.23;32.22;98723.77;124861;1101;64243;-80
2021/05/10 07:08:33;;;;;;;2.30;2.10;;;;;;;22.86;32.59;98724.72;124818;1101;64275;-80
2021/05/10 07:11:00;;;;;;;2.17;1.97;;;;;;;22.49;32.67;98715.63;124799;1101;64329;-81
2021/05/10 07:13:28;;;;;;;3.70;1.97;;;;;;;22.19;32.86;98722.86;124812;1096;64332;-80
2021/05/10 07:15:55;;;;;;;2.90;2.20;;;;;;;21.88;33.20;98723.79;124888;1095;64342;-81
2021/05/10 07:18:22;;;;;;;4.17;2.20;;;;;;;21.69;33.69;98722.38;124860;1101;64365;-82
2021/05/10 07:20:50;;;;;;;5.00;2.37;;;;;;;21.69;35.06;98730.52;124820;1101;64349;-81
2021/05/10 07:23:17;;;;;;;3.83;2.33;;;;;;;21.71;34.38;98733.06;124794;1096;64250;-81
2021/05/10 07:25:47;;;;;;;3.10;2.10;;;;;;;21.73;33.76;98722.05;124830;1096;64261;-81
2021/05/10 07:28:18;;;;;;;3.10;2.20;;;;;;;21.72;34.05;98723.05;124919;1096;64265;-80
2021/05/10 07:30:47;;;;;;;4.70;2.10;;;;;;;21.74;33.94;98726.44;124874;1096;64300;-83
2021/05/10 07:33:14;;;;;;;4.23;2.30;;;;;;;21.78;33.70;98731.33;124877;1096;64358;-81
2021/05/10 07:35:41;;;;;;;4.30;2.03;;;;;;;21.78;33.79;98730.48;124964;1096;64355;-80
2021/05/10 07:38:09;;;;;;;1.90;1.63;;;;;;;21.77;33.22;98729.62;124838;1101;64776;-81
2021/05/10 07:40:37;;;;;;;3.30;1.80;;;;;;;21.85;33.80;98726.00;124835;1096;64383;-81
2021/05/10 07:43:04;;;;;;;2.80;1.83;;;;;;;21.90;33.45;98723.59;124797;1096;64358;-81
2021/05/10 07:45:32;;;;;;;2.37;1.70;;;;;;;21.90;33.37;98727.14;124831;1101;64419;-81
2021/05/10 07:48:00;;;;;;;2.47;1.60;;;;;;;21.95;33.18;98729.31;124789;1101;64453;-82
2021/05/10 07:50:29;;;;;;;2.73;1.30;;;;;;;22.02;32.91;98737.59;124806;1101;64448;-81
2021/05/10 07:52:56;;;;;;;2.50;1.80;;;;;;;22.13;32.79;98737.98;124923;1101;64425;-80
2021/05/10 07:55:25;;;;;;;6.47;2.63;;;;;;;22.26;33.12;98734.68;124801;1096;64339;-81
2021/05/10 07:57:53;;;;;;;1.60;1.23;;;;;;;22.39;32.69;98735.93;124907;1096;64332;-82
2021/05/10 08:00:32;;;;;;;2.63;1.50;;;;;;;22.49;31.07;98728.36;124795;1101;64320;-81
2021/05/10 08:03:15;;;;;;;5.53;1.60;;;;;;;22.56;32.42;98738.30;124789;1101;64326;-82
2021/05/10 08:05:45;;;;;;;2.60;1.40;;;;;;;22.64;32.62;98733.78;124876;1101;64330;-81
2021/05/10 08:08:16;;;;;;;2.10;1.73;;;;;;;22.74;32.27;98734.36;124889;1102;64348;-80
2021/05/10 08:10:44;;;;;;;1.93;1.60;;;;;;;22.76;32.12;98727.70;124879;1101;64345;-81
2021/05/10 08:13:12;;;;;;;4.67;1.80;;;;;;;22.70;32.28;98727.63;124800;1096;64432;-81
2021/05/10 08:15:39;;;;;;;2.73;1.30;;;;;;;22.78;32.35;98719.38;124834;1101;64352;-81
2021/05/10 08:18:07;;;;;;;5.07;1.90;;;;;;;22.87;32.14;98722.84;124809;1096;64329;-81
2021/05/10 08:20:34;;;;;;;1.73;1.50;;;;;;;22.82;32.16;98723.39;124867;1101;64355;-80
2021/05/10 08:23:02;;;;;;;2.07;1.77;;;;;;;22.90;32.05;98711.59;124878;1101;64281;-82
2021/05/10 08:25:29;;;;;;;2.50;1.85;;;;;;;22.95;32.52;98715.42;124964;1096;64396;-82
2021/05/10 08:27:57;;;;;;;3.33;1.70;;;;;;;23.00;32.74;98720.33;124887;1101;64358;-80
2021/05/10 08:30:24;;;;;;;5.40;1.80;;;;;;;23.16;32.61;98716.55;124926;1101;64297;-80
2021/05/10 08:32:54;;;;;;;6.97;2.40;;;;;;;23.29;32.12;98715.88;124837;1101;64333;-81
2021/05/10 08:35:21;;;;;;;5.98;2.40;;;;;;;23.39;31.14;98711.81;124799;1096;64269;-81
2021/05/10 08:37:48;;;;;;;2.15;1.50;;;;;;;23.43;31.53;98715.85;124808;1101;64361;-80
2021/05/10 08:40:16;;;;;;;6.77;2.20;;;;;;;23.53;31.65;98725.56;124812;1096;64358;-81
2021/05/10 08:42:44;;;;;;;18.03;4.00;;;;;;;23.68;31.92;98720.08;124803;1096;64256;-81
2021/05/10 08:45:22;;;;;;;10.43;2.63;;;;;;;23.76;31.53;98718.09;124816;1101;64323;-81
2021/05/10 08:47:50;;;;;;;3.13;2.43;;;;;;;23.84;31.44;98717.13;124855;1101;64249;-81
2021/05/10 08:50:17;;;;;;;3.33;1.80;;;;;;;23.96;31.38;98723.74;125331;1101;64323;-79
2021/05/10 08:52:45;;;;;;;4.00;1.60;;;;;;;24.09;31.20;98717.55;125196;1101;64383;-82
2021/05/10 08:55:17;;;;;;;2.27;1.80;;;;;;;24.13;31.47;98715.30;125105;1096;64269;-85
2021/05/10 08:57:45;;;;;;;7.03;2.60;;;;;;;24.18;31.50;98704.66;125466;1101;64515;-87
2021/05/10 09:00:15;;;;;;;2.67;1.63;;;;;;;24.24;31.25;98701.13;125466;1101;64307;-87
2021/05/10 09:02:43;;;;;;;4.20;1.80;;;;;;;24.30;31.23;98703.05;125435;1101;64269;-87
2021/05/10 09:05:13;;;;;;;2.50;1.73;;;;;;;24.38;31.50;98702.06;125394;1097;64307;-86
2021/05/10 09:07:41;;;;;;;2.57;1.63;;;;;;;24.53;31.42;98702.83;125420;1101;64310;-87
2021/05/10 09:10:12;;;;;;;4.27;1.90;;;;;;;24.66;30.89;98704.80;125723;1096;64316;-90
2021/05/10 09:12:46;;;;;;;2.60;1.60;;;;;;;24.71;30.94;98694.14;125549;1102;64362;-85
2021/05/10 09:15:30;;;;;;;3.20;1.63;;;;;;;24.78;31.38;98689.58;125259;1101;64342;-85
2021/05/10 09:18:04;;;;;;;1.73;1.63;;;;;;;24.85;30.93;98692.33;125228;1101;64316;-83
2021/05/10 09:20:36;;;;;;;28.33;5.30;;;;;;;24.89;30.88;98683.55;125058;1102;64400;-88
2021/05/10 09:23:09;;;;;;;6.43;3.70;;;;;;;25.00;30.79;98684.86;125759;1101;64330;-89
2021/05/10 09:25:54;;;;;;;2.03;1.80;;;;;;;25.13;30.45;98675.89;124943;1101;64352;-82
2021/05/10 09:28:26;;;;;;;10.67;3.00;;;;;;;25.14;30.72;98683.02;124788;1097;64359;-81
2021/05/10 09:30:58;;;;;;;8.97;2.63;;;;;;;25.21;30.75;98678.47;124909;1101;64475;-81
2021/05/10 09:33:27;;;;;;;5.23;2.33;;;;;;;25.34;30.98;98681.23;124909;1101;64332;-81
2021/05/10 09:35:58;;;;;;;4.17;2.10;;;;;;;25.49;31.30;98672.02;124974;1095;64320;-82
2021/05/10 09:38:28;;;;;;;2.27;1.50;;;;;;;25.61;30.26;98678.56;124868;1101;64339;-80
2021/05/10 09:40:59;;;;;;;3.13;1.43;;;;;;;25.71;30.56;98672.70;124870;1101;64377;-82
2021/05/10 09:43:29;;;;;;;14.43;4.07;;;;;;;25.78;29.69;98673.56;124935;1101;64443;-82
2021/05/10 09:45:59;;;;;;;2.07;1.53;;;;;;;25.71;29.08;98673.55;125125;1096;64360;-90
2021/05/10 09:48:46;;;;;;;4.60;1.20;;;;;;;25.68;28.32;98673.13;127055;1087;63178;-92
2021/05/10 09:51:16;;;;;;;2.45;1.30;;;;;;;25.61;28.43;98664.91;125654;1101;64262;-89
2021/05/10 09:53:50;;;;;;;3.78;1.28;;;;;;;25.70;29.59;98665.55;125925;1101;64275;-90
2021/05/10 09:56:19;;;;;;;4.70;1.67;;;;;;;25.83;29.29;98668.32;125211;1104;64470;-84
2021/05/10 09:58:50;;;;;;;4.45;1.38;;;;;;;25.94;29.43;98666.89;124893;1104;64211;-84
2021/05/10 10:01:18;;;;;;;2.40;1.80;;;;;;;26.06;29.66;98666.02;124891;1096;64358;-84
2021/05/10 10:03:48;;;;;;;2.70;1.10;;;;;;;26.17;29.03;98660.97;124826;1104;64422;-84
2021/05/10 10:06:18;;;;;;;1.30;1.20;;;;;;;26.25;28.88;98653.42;124888;1104;64368;-84
2021/05/10 10:08:47;;;;;;;3.40;1.20;;;;;;;26.28;27.98;98652.99;124879;1104;64329;-84
2021/05/10 10:11:19;;;;;;;1.10;1.00;;;;;;;26.38;29.27;98649.80;124790;1104;64249;-85
2021/05/10 10:13:48;;;;;;;1.53;0.70;;;;;;;26.39;28.54;98654.23;125028;1096;64438;-85
2021/05/10 10:16:19;;;;;;;1.90;0.70;;;;;;;26.36;28.30;98657.39;124613;1104;64364;-85
2021/05/10 10:18:48;;;;;;;2.53;0.70;;;;;;;26.36;29.03;98651.93;124603;1104;64521;-84
2021/05/10 10:21:17;;;;;;;1.03;0.80;;;;;;;26.46;29.27;98649.60;124618;1104;64390;-84
2021/05/10 10:23:52;;;;;;;0.90;0.77;;;;;;;26.51;28.31;98657.14;124614;1104;64431;-84
2021/05/10 10:26:22;;;;;;;2.20;0.83;;;;;;;26.47;28.92;98648.53;124637;1104;64342;-84
2021/05/10 10:28:50;;;;;;;2.93;0.90;;;;;;;26.46;28.63;98649.60;124605;1104;64355;-84
2021/05/10 10:31:23;;;;;;;2.33;0.87;;;;;;;26.56;28.25;98646.44;124566;1096;64657;-84
2021/05/10 10:33:57;;;;;;;1.20;0.80;;;;;;;26.60;28.27;98644.97;124583;1096;64377;-84
2021/05/10 10:36:30;;;;;;;2.70;1.00;;;;;;;26.68;28.63;98647.46;124597;1104;64470;-84
2021/05/10 10:39:22;;;;;;;0.97;0.80;;;;;;;26.74;28.37;98651.22;124608;1104;64309;-83
2021/05/10 10:41:55;;;;;;;1.45;0.60;;;;;;;26.67;28.41;98644.93;124616;1096;64262;-83
2021/05/10 10:44:47;;;;;;;0.90;0.60;;;;;;;26.68;28.04;98646.63;124669;1096;64338;-84
2021/05/10 10:47:36;;;;;;;2.17;1.00;;;;;;;26.73;28.48;98645.99;124625;1104;64457;-83
2021/05/10 10:50:04;;;;;;;0.87;0.80;;;;;;;26.77;28.21;98647.22;124657;1104;64719;-85
2021/05/10 10:52:44;;;;;;;1.53;0.57;;;;;;;26.80;27.96;98638.58;124670;1104;64387;-84
2021/05/10 10:55:25;;;;;;;1.27;0.60;;;;;;;26.89;28.48;98631.83;124740;1096;64336;-87
2021/05/10 10:57:53;;;;;;;1.03;0.80;;;;;;;26.92;28.04;98634.96;124745;1104;64460;-86
2021/05/10 11:00:21;;;;;;;0.90;0.90;;;;;;;26.95;28.48;98636.42;124593;1105;64435;-85
2021/05/10 11:02:53;;;;;;;0.53;0.53;;;;;;;27.04;27.88;98640.61;124599;1104;64342;-84
2021/05/10 11:05:25;;;;;;;2.53;1.07;;;;;;;27.22;27.36;98639.05;124609;1096;64315;-84
2021/05/10 11:07:53;;;;;;;1.70;0.83;;;;;;;27.43;27.05;98630.50;124747;1096;64313;-84
2021/05/10 11:10:55;;;;;;;1.97;1.27;;;;;;;27.50;27.64;98622.27;124826;1096;64329;-84
2021/05/10 11:13:26;;;;;;;1.60;0.80;;;;;;;27.51;27.70;98626.66;124557;1104;64345;-84
2021/05/10 11:15:55;;;;;;;1.17;0.80;;;;;;;27.50;27.17;98636.78;124600;1104;64339;-84
2021/05/10 11:19:04;;;;;;;1.13;1.00;;;;;;;27.50;26.55;98639.52;124818;1096;64294;-84
2021/05/10 11:21:38;;;;;;;0.90;0.80;;;;;;;27.47;26.75;98626.28;124566;1096;64275;-84
2021/05/10 11:24:11;;;;;;;1.57;0.80;;;;;;;27.49;26.86;98629.64;124644;1104;64342;-83
2021/05/10 11:26:43;;;;;;;0.70;0.70;;;;;;;27.51;27.03;98634.88;124800;1104;64427;-84
2021/05/10 11:29:34;;;;;;;1.23;0.70;;;;;;;27.51;27.23;98630.23;124994;1104;64214;-83
2021/05/10 11:32:12;;;;;;;1.83;0.80;;;;;;;27.53;27.31;98625.38;124746;1096;64274;-84
2021/05/10 11:34:40;;;;;;;1.30;0.85;;;;;;;27.63;27.60;98626.81;124552;1104;64351;-83
2021/05/10 11:37:07;;;;;;;1.00;0.80;;;;;;;27.68;27.56;98622.34;124750;1104;64352;-83
2021/05/10 11:39:38;;;;;;;2.17;0.67;;;;;;;27.72;27.12;98612.60;124541;1104;64316;-83
2021/05/10 11:42:10;;;;;;;1.30;0.60;;;;;;;27.76;27.41;98616.59;124595;1104;64425;-84